ADDS TAF Board (Experimental) INFO Settings

IDs: Format: Expanded Condensed

KMDW - Chicago/Midway Intl, IL, US

Issued at 0523 UTC 29 Mar 2015
Updated at: 0606 UTC 29 Mar 2015
Time0553Z 29/07Z 29/08Z 29/09Z 29/10Z 29/11Z 29/12Z 29/13Z 29/14Z 29/15Z 29/16Z 29/17Z 29/18Z 29/19Z
Type OBS PRVL PRVL PRVL PRVL PRVL PRVL PRVL PRVL PRVL PRVL
  [TEMP]  
PRVL PRVL PRVL
VIS 10 >6 >6 >6 >6 >6 >6 >6 >6 >6 >6
  [3]  
4 4 4
CIG -- -- -- -- -- -- 150 150 150 80 80
  [35]  
25 25 25
Cover CLR FEW FEW SCT SCT SCT BKN BKN BKN OVC OVC
  [OVC]  
OVC OVC OVC
FltCat VFR VFR VFR VFR VFR VFR VFR VFR VFR VFR VFR
  [MVFR]  
MVFR MVFR MVFR
WX -- -- -- -- -- -- -- -- -- -- --
  [-RA -GS -SN]  
-SHRA -SHRA -SHRA
WDir 170 170 170 190 190 190 190 190 190 200 200
[200]
200 200 200
WSpd 7 8 8 12 12 12 15 15 15 23 23
  [23]  
23 23 23
WGst -- -- -- -- -- -- 25 25 25 35 35
  [35]  
34 34 34
R04/22
XWnd -6 -6 -6 -7 -7 -7 -8 -8 -8 -9 -9 -9 -9 -9
XGst -- -- -- -- -- -- -14 -14 -14 -14 -14 -13 -13 -13
HWnd -4 -5 -5 -10 -10 -10 -13 -13 -13 -21 -21 -21 -21 -21
HGst -- -- -- -- -- -- -21 -21 -21 -32 -32 -31 -31 -31
R13/31
XWnd -4 -5 -5 -10 -10 -10 -12 -12 -12 -21 -21 -21 -21 -21
XGst -- -- -- -- -- -- -21 -21 -21 -32 -32 -31 -31 -31
HWnd 6 6 6 7 7 7 8 8 8 9 9 9 9 9
HGst -- -- -- -- -- -- 14 14 14 14 14 14 14 14

NOTE: TEMPO conditions in [brackets]. Keep in mind TEMPO conditions might be better (lower impact) than prevailing conditions.

Raw TAF
KMDW 290523Z 2906/3006 17008KT P6SM FEW250
  FM290900 19012KT P6SM SCT150
  FM291200 19015G25KT P6SM BKN150
  FM291430 20023G35KT P6SM OVC080
  TEMPO 2916/2917 3SM -RAGSSN OVC035
  FM291700 20023G34KT 4SM -SHRA OVC025
  FM292000 22020G30KT P6SM OVC030
  FM300100 28012G24KT P6SM BKN025


Raw METAR
KMDW 290553Z 17007KT 10SM CLR M02/M11 A3028 RMK AO2 SLP265 T10221111 10006 21022 400281061 56012
KMDW 290453Z 16007KT 10SM CLR M02/M11 A3028 RMK AO2 SLP266 T10171111
KMDW 290353Z 15005KT 10SM CLR M02/M09 A3029 RMK AO2 SLP270 T10171094

METAR Board
Radar Display
Forecast Discussion

TAF Board Legend

Potential Impact
Threat None Slight Moderate High
Visibility (sm) ≥5.1 5.1>X≥3 3>X≥1 <1
Ceiling (100 ft) ≥30.1 30.1>X≥10 10>X≥5 <5
Wind Speed (kt) <10 10≤X<20 20≤X<30 ≥30
Wind Gust (kt) <15 15≤X<25 25≤X<35 ≥35
Weather No Wx Reported VCTS,-TS,-FZRA,SN TS,FZRA +TS,+FZRA,+SN